Bernardo de Irigoyen, Argentina
Current Conditions -  °F | °C
As of 5:00 PM on Friday 28 Nov 2014 (Local Time) from SAAR Reporting Station
Clear Clear  
Wind Chill: 84°   Ceiling: Unl
Heat Index: 84°   Visibility: 6mi
Dew Point: 55°   Wind: 14mph
Humidity: 37%   Direction: 70°ENE
Pressure: 29.8"   Gusts: NA
Location:  32.21°S, 61.14°W
Report Text: SAAR 282000Z 07012KT CAVOK 29/13 Q1009
Loading
Personal Weather Stations






























Interactive Weather Map New forecast layout! Learn more

10-Day Weather Forecast

Advertisements
Track Severe Weather on mobile